• Join FlightAware (Why Join?)
  • Login
  • US Flag 
09:08AM EDT


 

Airport Tracker/Info


-or-


 

Live Flight TrackerFlight Track Log ✈ PVL1901 ✈ 24-Jul-2013 ✈ CYQB - CYUL

Flight Track Log - Related Links

Times and Time Zones

All times are in EDT time to prevent confusion due to time zone crossing. See the PVL1901 flight status page for this flight to view local times or setup timezone preferences in your user account.

Time Position Orientation Groundspeed Altitude Reporting Facility
EDT Latitude Longitude Course Direction KTS MPH feet Rate Location/Type
01:40PM 46.7333 -71.4667 226° Southwest 160 184 2,300  Level Montreal Center
01:41PM 46.7000 -71.5167 226° Southwest 180 207 3,500 1,080 Climbing Montreal Center
01:42PM 46.6667 -71.5667 226° Southwest 190 219 4,500 900 Climbing Montreal Center
01:43PM 46.6333 -71.6167 226° Southwest 190 219 5,400 840 Climbing Montreal Center
01:44PM 46.5793 -71.7828 232° Southwest  Level Estimated
01:44PM 46.5833 -71.6667 215° Southwest 200 230 6,200  Level Montreal Center
01:45PM 46.5500 -71.7167 226° Southwest 210 242 6,900 600 Climbing Montreal Center
01:46PM 46.5000 -71.7667 215° Southwest 210 242 7,500 540 Climbing Montreal Center
01:47PM 46.4500 -71.8333 223° Southwest 220 253 8,000 480 Climbing Montreal Center
01:48PM 46.4000 -71.8833 215° Southwest 220 253 8,500 600 Climbing Montreal Center
01:49PM 46.3500 -71.9500 223° Southwest 220 253 9,300 720 Climbing Montreal Center
01:50PM 46.3167 -72.0000 226° Southwest 220 253 10,000 720 Climbing Montreal Center
01:51PM 46.2833 -72.0667 234° Southwest 220 253 10,800 720 Climbing Montreal Center
01:52PM 46.2333 -72.1333 223° Southwest 210 242 11,500 540 Climbing Montreal Center
01:53PM 46.1833 -72.1833 215° Southwest 210 242 11,900 300 Climbing Montreal Center
01:54PM 46.1333 -72.2333 215° Southwest 210 242 12,100 60 Climbing Montreal Center
01:55PM 46.1000 -72.2833 226° Southwest 210 242 12,100  Level Montreal Center
01:56PM 46.0500 -72.3500 223° Southwest 210 242 12,200  Climbing Montreal Center
01:57PM 46.0000 -72.4167 223° Southwest 220 253 12,200 -60 Level Montreal Center
01:58PM 45.9500 -72.4667 215° Southwest 220 253 12,100 -60 Descending Montreal Center
01:59PM 45.9000 -72.5167 215° Southwest 210 242 12,100  Level Montreal Center
02:00PM 45.8667 -72.6000 240° Southwest 230 265 12,100  Level Montreal Center
02:01PM 45.8333 -72.6667 234° Southwest 240 276 12,100 -60 Level Montreal Center
02:02PM 45.8000 -72.7500 240° Southwest 240 276 12,000 -300 Descending Montreal Center
02:03PM 45.7667 -72.8500 244° Southwest 250 288 11,600 -480 Descending Montreal Center
02:04PM 45.7167 -72.9167 223° Southwest 260 299 11,100 -660 Descending Montreal Center
02:05PM 45.7000 -73.0167 257° West 250 288 10,300 -900 Descending Montreal Center
02:06PM 45.7000 -73.1333 270° West 250 288 9,300 -1,200 Descending Montreal Center
02:07PM 45.6667 -73.2167 240° Southwest 260 299 8,000 -1,440 Descending Montreal Center
02:08PM 45.6667 -73.3333 270° West 230 265 6,500 -1,260 Descending Montreal Center
02:09PM 45.6500 -73.4000 250° West 200 230 5,500 -960 Descending Montreal Center
02:10PM 45.6500 -73.4667 270° West 200 230 4,600 -900 Descending Montreal Center
02:11PM 45.6167 -73.5500 240° Southwest 190 219 3,800 -840 Descending Montreal Center
02:12PM 45.5833 -73.6000 226° Southwest 200 230 3,000 -1,020 Descending Montreal Center
02:13PM 45.5333 -73.6500 215° Southwest 170 196 1,800 -960 Descending Montreal Center
02:14PM 45.5000 -73.6667 199° South 140 161 1,100 -720 Descending Montreal Center
02:15PM 45.4833 -73.7167 245° Southwest 130 150 400 -480 Descending Montreal Center
02:16PM 45.4667 -73.7500 235° Southwest 60 69 200 -240 Descending Montreal Center